createdAt,value
2022-09-02T00:04:24.836Z,7.40
2022-09-02T00:12:32.844Z,7.85
2022-09-02T00:20:38.237Z,7.60
2022-09-02T00:28:51.130Z,7.53
2022-09-02T00:37:02.296Z,8.07
2022-09-02T00:45:12.475Z,7.95
2022-09-02T00:53:18.212Z,7.68
2022-09-02T01:01:27.295Z,6.90
2022-09-02T01:09:33.702Z,7.95
2022-09-02T01:17:45.324Z,8.63
2022-09-02T01:25:53.634Z,7.72
2022-09-02T01:33:59.720Z,9.05
2022-09-02T01:42:08.309Z,8.02
2022-09-02T01:50:13.717Z,8.07
2022-09-02T01:58:22.896Z,7.75
2022-09-02T02:06:29.044Z,7.50
2022-09-02T02:14:38.730Z,7.28
2022-09-02T02:22:44.848Z,7.07
2022-09-02T02:30:53.043Z,7.47
2022-09-02T02:38:58.640Z,7.78
2022-09-02T02:47:06.727Z,7.40
2022-09-02T02:55:15.067Z,8.05
2022-09-02T03:03:23.226Z,7.88
2022-09-02T03:11:32.388Z,7.38
2022-09-02T03:19:40.688Z,6.10
2022-09-02T03:27:46.902Z,6.60
2022-09-02T03:35:57.605Z,7.07
2022-09-02T03:44:04.569Z,7.00
2022-09-02T03:52:13.498Z,7.13
2022-09-02T04:00:21.433Z,7.07
2022-09-02T04:08:29.636Z,6.28
2022-09-02T04:16:39.173Z,6.90
2022-09-02T04:24:48.591Z,6.03
2022-09-02T04:32:55.857Z,5.53
2022-09-02T04:41:08.530Z,6.97
2022-09-02T04:49:14.712Z,6.37
2022-09-02T04:57:24.611Z,5.18
2022-09-02T05:05:29.991Z,6.20
2022-09-02T05:13:40.502Z,5.85
2022-09-02T05:21:48.275Z,5.57
2022-09-02T05:30:06.619Z,5.57
2022-09-02T05:38:14.902Z,5.75
2022-09-02T05:46:24.890Z,4.88
2022-09-02T05:54:34.756Z,4.78
2022-09-02T06:02:46.678Z,4.82
2022-09-02T06:11:02.038Z,4.60
2022-09-02T06:19:10.830Z,4.95
2022-09-02T06:27:17.058Z,4.47
2022-09-02T06:35:28.620Z,4.38
2022-09-02T06:43:42.459Z,4.60
2022-09-02T06:52:11.071Z,4.83
2022-09-02T07:00:17.771Z,4.28
2022-09-02T07:08:26.032Z,4.18
2022-09-02T07:16:34.247Z,3.75
2022-09-02T07:24:42.717Z,4.97
2022-09-02T07:32:49.565Z,4.50
2022-09-02T07:41:00.868Z,4.75
2022-09-02T07:49:12.577Z,4.10
2022-09-02T07:57:21.184Z,3.50
2022-09-02T08:05:27.840Z,4.63
2022-09-02T08:13:35.878Z,4.03
2022-09-02T08:21:41.268Z,4.28
2022-09-02T08:29:49.265Z,4.20
2022-09-02T08:37:54.824Z,4.40
2022-09-02T08:46:06.813Z,4.60
2022-09-02T08:54:24.425Z,4.25
2022-09-02T09:02:47.399Z,4.15
2022-09-02T09:10:59.853Z,4.45
2022-09-02T09:19:14.991Z,4.93
2022-09-02T09:27:21.994Z,4.38
2022-09-02T09:35:31.393Z,4.30
2022-09-02T09:43:36.753Z,4.25
2022-09-02T09:51:58.121Z,4.32
2022-09-02T10:00:03.973Z,4.05
2022-09-02T10:08:27.278Z,4.25
2022-09-02T10:16:59.522Z,3.90
2022-09-02T10:25:21.696Z,4.28
2022-09-02T10:33:36.169Z,4.60
2022-09-02T10:41:48.991Z,3.83
2022-09-02T10:50:05.636Z,4.20
2022-09-02T10:58:18.059Z,4.20
2022-09-02T11:06:31.778Z,3.93
2022-09-02T11:14:58.198Z,4.43
2022-09-02T11:23:09.882Z,4.82
2022-09-02T11:31:23.021Z,4.25
2022-09-02T11:39:53.956Z,5.05
2022-09-02T11:48:33.473Z,4.22
2022-09-02T11:56:42.887Z,4.78
2022-09-02T12:05:00.426Z,4.20
2022-09-02T12:13:09.842Z,4.57
2022-09-02T12:21:22.950Z,4.40
2022-09-02T12:29:39.850Z,4.80
2022-09-02T12:37:59.743Z,4.55
2022-09-02T12:46:17.556Z,4.45
2022-09-02T12:54:33.390Z,5.13
2022-09-02T13:02:49.262Z,4.78
2022-09-02T13:11:37.258Z,4.07
2022-09-02T13:20:07.452Z,4.53
2022-09-02T13:28:53.175Z,4.07
2022-09-02T13:36:58.522Z,4.32
2022-09-02T13:45:21.055Z,4.00
2022-09-02T13:53:53.670Z,4.53
2022-09-02T14:02:24.337Z,4.43
2022-09-02T14:10:31.779Z,4.20
2022-09-02T14:18:39.757Z,4.20
2022-09-02T14:26:47.049Z,4.07
2022-09-02T14:35:23.611Z,3.92
2022-09-02T14:43:29.288Z,3.78
2022-09-02T14:51:42.583Z,4.28
2022-09-02T14:59:47.892Z,4.75
2022-09-02T15:07:56.947Z,4.50
2022-09-02T15:16:02.927Z,4.28
2022-09-02T15:24:11.286Z,4.00
2022-09-02T15:32:16.654Z,4.10
2022-09-02T15:40:24.794Z,4.20
2022-09-02T15:48:30.217Z,4.38
2022-09-02T15:56:40.454Z,4.15
2022-09-02T16:04:45.915Z,4.38
2022-09-02T16:12:53.941Z,4.13
2022-09-02T16:20:59.335Z,5.25
2022-09-02T16:29:08.931Z,4.30
2022-09-02T16:37:14.634Z,4.38
2022-09-02T16:45:22.733Z,4.30
2022-09-02T16:53:28.156Z,4.60
2022-09-02T17:01:36.615Z,4.25
2022-09-02T17:09:42.094Z,4.32
2022-09-02T17:17:50.071Z,5.30
2022-09-02T17:25:55.452Z,5.00
2022-09-02T17:34:05.027Z,4.53
2022-09-02T17:42:10.664Z,4.72
2022-09-02T17:50:18.857Z,5.30
2022-09-02T17:58:26.430Z,5.82
2022-09-02T18:06:40.740Z,5.75
2022-09-02T18:14:49.790Z,5.80
2022-09-02T18:23:21.786Z,5.05
2022-09-02T18:31:38.118Z,7.07
2022-09-02T18:40:02.850Z,5.38
2022-09-02T18:48:11.967Z,5.38
2022-09-02T18:56:25.416Z,5.78
2022-09-02T19:04:40.109Z,5.00
2022-09-02T19:12:48.154Z,3.92
2022-09-02T19:20:53.671Z,4.35
2022-09-02T19:29:04.333Z,5.68
2022-09-02T19:37:11.924Z,6.53
2022-09-02T19:45:20.180Z,7.82
2022-09-02T19:53:30.387Z,10.93
2022-09-02T20:01:38.638Z,7.57
2022-09-02T20:09:44.093Z,5.57
2022-09-02T20:17:54.774Z,3.92
2022-09-02T20:26:13.146Z,4.30
2022-09-02T20:34:32.562Z,3.95
2022-09-02T20:43:00.665Z,3.55
2022-09-02T20:51:14.455Z,3.97
2022-09-02T20:59:29.144Z,3.78
2022-09-02T21:07:42.890Z,4.18
2022-09-02T21:15:51.824Z,3.63
2022-09-02T21:24:08.923Z,4.32
2022-09-02T21:32:20.655Z,3.50
2022-09-02T21:40:38.910Z,3.53
2022-09-02T21:48:59.007Z,4.70
2022-09-02T21:57:24.893Z,3.80
2022-09-02T22:05:47.754Z,4.13
2022-09-02T22:13:55.761Z,4.13
2022-09-02T22:22:08.920Z,3.67
2022-09-02T22:30:19.028Z,4.07
2022-09-02T22:38:27.921Z,3.75
2022-09-02T22:46:58.321Z,3.60
2022-09-02T22:55:03.755Z,4.68
2022-09-02T23:03:18.421Z,3.97
2022-09-02T23:11:30.982Z,4.22
2022-09-02T23:19:56.596Z,4.77
2022-09-02T23:28:15.297Z,3.83
2022-09-02T23:36:35.247Z,3.63
2022-09-02T23:44:41.949Z,4.00
2022-09-02T23:52:56.665Z,4.22
